PWSweather.com
Personal Weather Stations
Station Observations
BALTRELAY
Relay, Baltimore, MD 21227

RelayBaltimore, MD 21227

Lat: 39.24588, Lon: -76.719772

Elevation: 221

Station Type: Davis Vantage Pro2 (6153)

http://www.relayweather.com

Latest ConditionsUpdated 9:50:01 AM GMT Saturday, Aug 27, 2016
Currently Today's Max Today's Min Today's Average
Temperature 74.5°F23.6°C 84.7°F29.3°C 74.5°F23.6°C 78.9°F26.1°C
Dew Point 67.2°F19.6°C 73.4°F23.0°C 66.8°F19.3°C 69.8°F21.0°C
Winds Calm Calm Calm NWCalm NW - Calm Calm
Wind Gusts -- 1.2 mph1.9 kmh - -
Humidity 78% 78% 68% 74%
Pressure 30.12 in1020.0 mb 30.12 in1020.0 mb 30.02 in1016.6 mb -
Hour Temp Dew Point Humidity Winds Wind Gusts Pressure Precip Precip Rate Daily Precip Total
09:50 AM 74.5°F23.6°C 67.2°F19.6°C 78% Calm Calm -- 30.12 in1020.0 mb - 0.00 in0.0 mm 0.00 in0.0 mm
09:45 AM 74.7°F23.7°C 67.3°F19.6°C 78% Calm Calm -- 30.12 in1020.0 mb - 0.00 in0.0 mm 0.00 in0.0 mm
09:40 AM 74.9°F23.8°C 67.6°F19.8°C 78% Calm Calm -- 30.11 in1019.6 mb - 0.00 in0.0 mm 0.00 in0.0 mm
09:30 AM 74.7°F23.7°C 67.4°F19.7°C 78% Calm Calm 1.2 mph1.9 kmh 30.11 in1019.6 mb - 0.00 in0.0 mm 0.00 in0.0 mm
09:20 AM 74.9°F23.8°C 67.6°F19.8°C 78% Calm Calm -- 30.11 in1019.6 mb - 0.00 in0.0 mm 0.00 in0.0 mm
09:15 AM 74.8°F23.8°C 67.5°F19.7°C 78% Calm Calm -- 30.11 in1019.6 mb - 0.00 in0.0 mm 0.00 in0.0 mm
09:10 AM 74.7°F23.7°C 67.4°F19.7°C 78% Calm Calm -- 30.11 in1019.6 mb - 0.00 in0.0 mm 0.00 in0.0 mm
09:00 AM 74.6°F23.7°C 67.3°F19.6°C 78% Calm Calm -- 30.11 in1019.6 mb - 0.00 in0.0 mm 0.00 in0.0 mm
08:50 AM 74.7°F23.7°C 67.0°F19.4°C 77% Calm Calm -- 30.10 in1019.3 mb - 0.00 in0.0 mm 0.00 in0.0 mm
08:45 AM 74.9°F23.8°C 67.2°F19.6°C 77% Calm Calm -- 30.10 in1019.3 mb - 0.00 in0.0 mm 0.00 in0.0 mm
08:40 AM 75.1°F23.9°C 67.0°F19.4°C 76% Calm Calm -- 30.10 in1019.3 mb - 0.00 in0.0 mm 0.00 in0.0 mm
08:30 AM 75.2°F24.0°C 67.1°F19.5°C 76% Calm Calm -- 30.10 in1019.3 mb - 0.00 in0.0 mm 0.00 in0.0 mm
08:20 AM 75.3°F24.1°C 66.8°F19.3°C 75% Calm Calm -- 30.10 in1019.3 mb - 0.00 in0.0 mm 0.00 in0.0 mm
08:15 AM 75.5°F24.2°C 67.1°F19.5°C 75% Calm Calm -- 30.10 in1019.3 mb - 0.00 in0.0 mm 0.00 in0.0 mm
08:10 AM 75.4°F24.1°C 67.3°F19.6°C 76% Calm Calm -- 30.10 in1019.3 mb - 0.00 in0.0 mm 0.00 in0.0 mm
08:00 AM 75.2°F24.0°C 67.1°F19.5°C 76% Calm Calm -- 30.09 in1019.0 mb - 0.00 in0.0 mm 0.00 in0.0 mm
07:50 AM 75.6°F24.2°C 67.1°F19.5°C 75% Calm Calm -- 30.09 in1019.0 mb - 0.00 in0.0 mm 0.00 in0.0 mm
07:45 AM 75.7°F24.3°C 67.2°F19.6°C 75% Calm Calm -- 30.09 in1019.0 mb - 0.00 in0.0 mm 0.00 in0.0 mm
07:40 AM 75.9°F24.4°C 67.4°F19.7°C 75% Calm Calm -- 30.09 in1019.0 mb - 0.00 in0.0 mm 0.00 in0.0 mm
07:30 AM 75.8°F24.3°C 67.7°F19.8°C 76% Calm Calm -- 30.09 in1019.0 mb - 0.00 in0.0 mm 0.00 in0.0 mm
07:20 AM 76.1°F24.5°C 67.6°F19.8°C 75% Calm Calm -- 30.09 in1019.0 mb - 0.00 in0.0 mm 0.00 in0.0 mm
07:15 AM 76.2°F24.6°C 68.1°F20.1°C 76% Calm Calm -- 30.09 in1019.0 mb - 0.00 in0.0 mm 0.00 in0.0 mm
07:10 AM 76.3°F24.6°C 68.2°F20.1°C 76% Calm Calm -- 30.09 in1019.0 mb - 0.00 in0.0 mm 0.00 in0.0 mm
07:00 AM 76.5°F24.7°C 68.3°F20.2°C 76% Calm Calm -- 30.09 in1019.0 mb - 0.00 in0.0 mm 0.00 in0.0 mm
06:50 AM 76.1°F24.5°C 68.3°F20.2°C 77% Calm Calm -- 30.09 in1019.0 mb - 0.00 in0.0 mm 0.00 in0.0 mm
06:45 AM 76.1°F24.5°C 68.3°F20.2°C 77% Calm Calm -- 30.09 in1019.0 mb - 0.00 in0.0 mm 0.00 in0.0 mm
06:40 AM 76.4°F24.7°C 68.7°F20.4°C 77% Calm Calm -- 30.09 in1019.0 mb - 0.00 in0.0 mm 0.00 in0.0 mm
06:30 AM 76.4°F24.7°C 68.6°F20.3°C 77% Calm Calm -- 30.09 in1019.0 mb - 0.00 in0.0 mm 0.00 in0.0 mm
06:20 AM 77.1°F25.1°C 68.9°F20.5°C 76% Calm Calm -- 30.09 in1019.0 mb - 0.00 in0.0 mm 0.00 in0.0 mm
06:15 AM 77.2°F25.1°C 69.1°F20.6°C 76% Calm Calm -- 30.09 in1019.0 mb - 0.00 in0.0 mm 0.00 in0.0 mm
06:10 AM 77.3°F25.2°C 69.1°F20.6°C 76% Calm Calm -- 30.09 in1019.0 mb - 0.00 in0.0 mm 0.00 in0.0 mm
06:00 AM 77.4°F25.2°C 69.2°F20.7°C 76% Calm Calm -- 30.09 in1019.0 mb - 0.00 in0.0 mm 0.00 in0.0 mm
05:50 AM 77.6°F25.3°C 69.8°F21.0°C 77% Calm Calm -- 30.09 in1019.0 mb - 0.00 in0.0 mm 0.00 in0.0 mm
05:45 AM 77.4°F25.2°C 69.6°F20.9°C 77% Calm Calm -- 30.09 in1019.0 mb - 0.00 in0.0 mm 0.00 in0.0 mm
05:40 AM 77.4°F25.2°C 69.6°F20.9°C 77% Calm Calm -- 30.09 in1019.0 mb - 0.00 in0.0 mm 0.00 in0.0 mm
05:30 AM 77.4°F25.2°C 69.6°F20.9°C 77% Calm Calm -- 30.09 in1019.0 mb - 0.00 in0.0 mm 0.00 in0.0 mm
05:20 AM 77.8°F25.4°C 70.0°F21.1°C 77% Calm Calm -- 30.09 in1019.0 mb - 0.00 in0.0 mm 0.00 in0.0 mm
05:15 AM 78.1°F25.6°C 70.3°F21.3°C 77% Calm Calm -- 30.09 in1019.0 mb - 0.00 in0.0 mm 0.00 in0.0 mm
05:10 AM 78.3°F25.7°C 70.1°F21.2°C 76% Calm Calm -- 30.09 in1019.0 mb - 0.00 in0.0 mm 0.00 in0.0 mm
05:00 AM 78.7°F25.9°C 70.1°F21.2°C 75% Calm Calm -- 30.09 in1019.0 mb - 0.00 in0.0 mm 0.00 in0.0 mm
04:50 AM 79.1°F26.2°C 70.5°F21.4°C 75% Calm Calm -- 30.09 in1019.0 mb - 0.00 in0.0 mm 0.00 in0.0 mm
04:45 AM 79.0°F26.1°C 70.4°F21.3°C 75% Calm Calm -- 30.09 in1019.0 mb - 0.00 in0.0 mm 0.00 in0.0 mm
04:40 AM 79.3°F26.3°C 70.7°F21.5°C 75% Calm Calm -- 30.09 in1019.0 mb - 0.00 in0.0 mm 0.00 in0.0 mm
04:30 AM 79.1°F26.2°C 70.5°F21.4°C 75% Calm Calm -- 30.09 in1019.0 mb - 0.00 in0.0 mm 0.00 in0.0 mm
04:20 AM 79.2°F26.2°C 70.6°F21.4°C 75% Calm Calm -- 30.08 in1018.6 mb - 0.00 in0.0 mm 0.00 in0.0 mm
04:15 AM 79.4°F26.3°C 70.7°F21.5°C 75% Calm Calm -- 30.08 in1018.6 mb - 0.00 in0.0 mm 0.00 in0.0 mm
04:10 AM 79.4°F26.3°C 70.8°F21.6°C 75% Calm Calm -- 30.08 in1018.6 mb - 0.00 in0.0 mm 0.00 in0.0 mm
04:00 AM 79.5°F26.4°C 70.9°F21.6°C 75% Calm Calm -- 30.08 in1018.6 mb - 0.00 in0.0 mm 0.00 in0.0 mm
03:50 AM 79.8°F26.6°C 70.8°F21.6°C 74% Calm Calm -- 30.08 in1018.6 mb - 0.00 in0.0 mm 0.00 in0.0 mm
03:45 AM 79.9°F26.6°C 70.8°F21.6°C 74% Calm Calm -- 30.08 in1018.6 mb - 0.00 in0.0 mm 0.00 in0.0 mm
03:40 AM 79.8°F26.6°C 70.8°F21.6°C 74% Calm Calm -- 30.08 in1018.6 mb - 0.00 in0.0 mm 0.00 in0.0 mm
03:30 AM 80.3°F26.8°C 70.9°F21.6°C 73% Calm Calm -- 30.08 in1018.6 mb - 0.00 in0.0 mm 0.00 in0.0 mm
03:20 AM 80.6°F27.0°C 71.1°F21.7°C 73% Calm Calm -- 30.08 in1018.6 mb - 0.00 in0.0 mm 0.00 in0.0 mm
03:15 AM 80.7°F27.1°C 71.2°F21.8°C 73% Calm Calm -- 30.08 in1018.6 mb - 0.00 in0.0 mm 0.00 in0.0 mm
03:10 AM 80.7°F27.1°C 71.2°F21.8°C 73% Calm Calm -- 30.08 in1018.6 mb - 0.00 in0.0 mm 0.00 in0.0 mm
03:00 AM 80.8°F27.1°C 71.3°F21.8°C 73% Calm Calm -- 30.08 in1018.6 mb - 0.00 in0.0 mm 0.00 in0.0 mm
02:50 AM 81.1°F27.3°C 71.2°F21.8°C 72% Calm Calm -- 30.07 in1018.3 mb - 0.00 in0.0 mm 0.00 in0.0 mm
02:45 AM 81.2°F27.3°C 71.3°F21.8°C 72% Calm Calm -- 30.07 in1018.3 mb - 0.00 in0.0 mm 0.00 in0.0 mm
02:40 AM 81.4°F27.4°C 71.5°F21.9°C 72% Calm Calm -- 30.07 in1018.3 mb - 0.00 in0.0 mm 0.00 in0.0 mm
02:30 AM 81.7°F27.6°C 71.4°F21.9°C 71% Calm Calm -- 30.07 in1018.3 mb - 0.00 in0.0 mm 0.00 in0.0 mm
02:20 AM 81.7°F27.6°C 71.8°F22.1°C 72% Calm Calm -- 30.06 in1017.9 mb - 0.00 in0.0 mm 0.00 in0.0 mm
02:15 AM 81.6°F27.6°C 71.7°F22.1°C 72% Calm Calm -- 30.06 in1017.9 mb - 0.00 in0.0 mm 0.00 in0.0 mm
02:10 AM 81.4°F27.4°C 71.5°F21.9°C 72% Calm Calm -- 30.06 in1017.9 mb - 0.00 in0.0 mm 0.00 in0.0 mm
02:00 AM 81.9°F27.7°C 71.6°F22.0°C 71% Calm Calm -- 30.06 in1017.9 mb - 0.00 in0.0 mm 0.00 in0.0 mm
01:50 AM 82.8°F28.2°C 71.5°F21.9°C 69% Calm Calm -- 30.05 in1017.6 mb - 0.00 in0.0 mm 0.00 in0.0 mm
01:45 AM 83.0°F28.3°C 71.3°F21.8°C 68% Calm Calm -- 30.05 in1017.6 mb - 0.00 in0.0 mm 0.00 in0.0 mm
01:40 AM 83.0°F28.3°C 71.3°F21.8°C 68% Calm Calm -- 30.05 in1017.6 mb - 0.00 in0.0 mm 0.00 in0.0 mm
01:30 AM 83.0°F28.3°C 71.4°F21.9°C 68% Calm Calm -- 30.05 in1017.6 mb - 0.00 in0.0 mm 0.00 in0.0 mm
01:20 AM 83.0°F28.3°C 71.8°F22.1°C 69% Calm Calm -- 30.05 in1017.6 mb - 0.00 in0.0 mm 0.00 in0.0 mm
01:15 AM 83.0°F28.3°C 71.8°F22.1°C 69% Calm Calm -- 30.05 in1017.6 mb - 0.00 in0.0 mm 0.00 in0.0 mm
01:10 AM 83.1°F28.4°C 71.9°F22.2°C 69% Calm Calm -- 30.05 in1017.6 mb - 0.00 in0.0 mm 0.00 in0.0 mm
01:00 AM 83.3°F28.5°C 71.6°F22.0°C 68% Calm Calm -- 30.04 in1017.3 mb - 0.00 in0.0 mm 0.00 in0.0 mm
12:50 AM 83.4°F28.6°C 71.7°F22.1°C 68% Calm Calm -- 30.04 in1017.3 mb - 0.00 in0.0 mm 0.00 in0.0 mm
12:45 AM 83.6°F28.7°C 71.9°F22.2°C 68% Calm Calm -- 30.04 in1017.3 mb - 0.00 in0.0 mm 0.00 in0.0 mm
12:40 AM 83.8°F28.8°C 72.1°F22.3°C 68% Calm Calm -- 30.04 in1017.3 mb - 0.00 in0.0 mm 0.00 in0.0 mm
12:30 AM 84.1°F28.9°C 72.4°F22.4°C 68% Calm Calm -- 30.03 in1016.9 mb - 0.00 in0.0 mm 0.00 in0.0 mm
12:20 AM 84.3°F29.1°C 72.6°F22.6°C 68% Calm Calm -- 30.03 in1016.9 mb - 0.00 in0.0 mm 0.00 in0.0 mm
12:15 AM 84.4°F29.1°C 72.7°F22.6°C 68% Calm Calm -- 30.03 in1016.9 mb - 0.00 in0.0 mm 0.00 in0.0 mm
12:10 AM 84.6°F29.2°C 72.9°F22.7°C 68% Calm Calm -- 30.03 in1016.9 mb - 0.00 in0.0 mm 0.00 in0.0 mm
12:00 AM 84.7°F29.3°C 73.4°F23.0°C 69% Calm Calm -- 30.02 in1016.6 mb - 0.00 in0.0 mm 0.00 in0.0 mm